sensor_id;sensor_type;location;lat;lon;timestamp;pressure;altitude;pressure_sealevel;temperature;humidity
9307;BME280;4691;47.612;7.610;2023-03-18T00:01:32;98536.25;;;10.50;100.00
9307;BME280;4691;47.612;7.610;2023-03-18T00:03:59;98536.03;;;10.42;100.00
9307;BME280;4691;47.612;7.610;2023-03-18T00:06:25;98534.56;;;10.49;100.00
9307;BME280;4691;47.612;7.610;2023-03-18T00:08:51;98537.75;;;10.43;100.00
9307;BME280;4691;47.612;7.610;2023-03-18T00:11:18;98541.94;;;10.57;100.00
9307;BME280;4691;47.612;7.610;2023-03-18T00:13:44;98548.13;;;10.57;100.00
9307;BME280;4691;47.612;7.610;2023-03-18T00:16:10;98548.44;;;10.43;100.00
9307;BME280;4691;47.612;7.610;2023-03-18T00:18:37;98539.66;;;10.52;100.00
9307;BME280;4691;47.612;7.610;2023-03-18T00:21:03;98545.16;;;10.39;100.00
9307;BME280;4691;47.612;7.610;2023-03-18T00:23:30;98547.34;;;10.34;100.00
9307;BME280;4691;47.612;7.610;2023-03-18T00:25:57;98553.78;;;10.32;100.00
9307;BME280;4691;47.612;7.610;2023-03-18T00:28:24;98540.91;;;10.14;100.00
9307;BME280;4691;47.612;7.610;2023-03-18T00:30:49;98530.31;;;10.24;100.00
9307;BME280;4691;47.612;7.610;2023-03-18T00:33:16;98537.16;;;10.06;100.00
9307;BME280;4691;47.612;7.610;2023-03-18T00:35:42;98547.13;;;9.92;100.00
9307;BME280;4691;47.612;7.610;2023-03-18T00:38:09;98534.00;;;10.00;100.00
9307;BME280;4691;47.612;7.610;2023-03-18T00:40:40;98545.91;;;9.85;100.00
9307;BME280;4691;47.612;7.610;2023-03-18T00:43:21;98572.50;;;9.75;100.00
9307;BME280;4691;47.612;7.610;2023-03-18T00:45:47;98561.84;;;9.87;100.00
9307;BME280;4691;47.612;7.610;2023-03-18T00:48:13;98558.28;;;9.86;100.00
9307;BME280;4691;47.612;7.610;2023-03-18T00:50:38;98568.00;;;9.76;100.00
9307;BME280;4691;47.612;7.610;2023-03-18T00:53:04;98573.59;;;9.62;100.00
9307;BME280;4691;47.612;7.610;2023-03-18T00:55:29;98567.28;;;9.74;100.00
9307;BME280;4691;47.612;7.610;2023-03-18T00:57:55;98555.97;;;9.59;100.00
9307;BME280;4691;47.612;7.610;2023-03-18T01:00:20;98552.81;;;9.65;100.00
9307;BME280;4691;47.612;7.610;2023-03-18T01:02:46;98564.94;;;9.58;100.00
9307;BME280;4691;47.612;7.610;2023-03-18T01:05:14;98551.97;;;9.65;100.00
9307;BME280;4691;47.612;7.610;2023-03-18T01:07:41;98555.09;;;9.47;100.00
9307;BME280;4691;47.612;7.610;2023-03-18T01:10:08;98562.75;;;9.41;100.00
9307;BME280;4691;47.612;7.610;2023-03-18T01:12:34;98569.44;;;9.57;100.00
9307;BME280;4691;47.612;7.610;2023-03-18T01:15:00;98554.03;;;9.72;100.00
9307;BME280;4691;47.612;7.610;2023-03-18T01:17:25;98547.13;;;9.70;100.00
9307;BME280;4691;47.612;7.610;2023-03-18T01:19:51;98555.69;;;9.40;100.00
9307;BME280;4691;47.612;7.610;2023-03-18T01:22:17;98564.59;;;9.63;100.00
9307;BME280;4691;47.612;7.610;2023-03-18T01:24:43;98563.75;;;9.51;100.00
9307;BME280;4691;47.612;7.610;2023-03-18T01:27:10;98555.09;;;9.36;100.00
9307;BME280;4691;47.612;7.610;2023-03-18T01:29:36;98550.94;;;9.21;100.00
9307;BME280;4691;47.612;7.610;2023-03-18T01:32:02;98548.97;;;9.11;100.00
9307;BME280;4691;47.612;7.610;2023-03-18T01:34:28;98549.22;;;9.20;100.00
9307;BME280;4691;47.612;7.610;2023-03-18T01:36:53;98554.84;;;9.28;100.00
9307;BME280;4691;47.612;7.610;2023-03-18T01:39:20;98546.28;;;9.11;100.00
9307;BME280;4691;47.612;7.610;2023-03-18T01:41:46;98551.13;;;9.06;100.00
9307;BME280;4691;47.612;7.610;2023-03-18T01:44:14;98536.34;;;9.02;100.00
9307;BME280;4691;47.612;7.610;2023-03-18T01:46:44;98544.09;;;9.05;100.00
9307;BME280;4691;47.612;7.610;2023-03-18T01:49:14;98546.69;;;9.18;100.00
9307;BME280;4691;47.612;7.610;2023-03-18T01:51:47;98545.59;;;9.21;100.00
9307;BME280;4691;47.612;7.610;2023-03-18T01:54:14;98541.69;;;9.02;100.00
9307;BME280;4691;47.612;7.610;2023-03-18T01:56:42;98549.09;;;8.75;100.00
9307;BME280;4691;47.612;7.610;2023-03-18T01:59:09;98549.63;;;8.91;100.00
9307;BME280;4691;47.612;7.610;2023-03-18T02:01:40;98545.78;;;8.95;100.00
9307;BME280;4691;47.612;7.610;2023-03-18T02:04:09;98543.53;;;9.13;100.00
9307;BME280;4691;47.612;7.610;2023-03-18T02:06:35;98546.63;;;8.96;100.00
9307;BME280;4691;47.612;7.610;2023-03-18T02:09:02;98540.19;;;8.98;100.00
9307;BME280;4691;47.612;7.610;2023-03-18T02:11:30;98544.09;;;8.94;100.00
9307;BME280;4691;47.612;7.610;2023-03-18T02:13:58;98540.97;;;9.11;100.00
9307;BME280;4691;47.612;7.610;2023-03-18T02:16:27;98540.97;;;9.11;100.00
9307;BME280;4691;47.612;7.610;2023-03-18T02:19:00;98538.97;;;8.91;100.00
9307;BME280;4691;47.612;7.610;2023-03-18T02:21:52;98545.25;;;8.79;100.00
9307;BME280;4691;47.612;7.610;2023-03-18T02:27:13;98542.75;;;9.00;100.00
9307;BME280;4691;47.612;7.610;2023-03-18T02:29:39;98543.75;;;8.75;100.00
9307;BME280;4691;47.612;7.610;2023-03-18T02:32:07;98549.09;;;8.75;100.00
9307;BME280;4691;47.612;7.610;2023-03-18T02:34:33;98550.34;;;8.82;100.00
9307;BME280;4691;47.612;7.610;2023-03-18T02:37:00;98556.16;;;8.87;100.00
9307;BME280;4691;47.612;7.610;2023-03-18T02:39:26;98556.25;;;8.74;100.00
9307;BME280;4691;47.612;7.610;2023-03-18T02:41:54;98552.41;;;8.65;100.00
9307;BME280;4691;47.612;7.610;2023-03-18T02:44:19;98543.78;;;8.86;100.00
9307;BME280;4691;47.612;7.610;2023-03-18T02:46:58;98548.41;;;8.84;100.00
9307;BME280;4691;47.612;7.610;2023-03-18T02:49:25;98550.59;;;8.90;100.00
9307;BME280;4691;47.612;7.610;2023-03-18T02:51:52;98547.50;;;8.72;100.00
9307;BME280;4691;47.612;7.610;2023-03-18T02:54:21;98553.28;;;8.90;100.00
9307;BME280;4691;47.612;7.610;2023-03-18T02:56:47;98553.63;;;8.61;100.00
9307;BME280;4691;47.612;7.610;2023-03-18T02:59:13;98562.97;;;8.67;100.00
9307;BME280;4691;47.612;7.610;2023-03-18T03:01:40;98555.31;;;8.62;100.00
9307;BME280;4691;47.612;7.610;2023-03-18T03:04:05;98552.25;;;8.80;100.00
9307;BME280;4691;47.612;7.610;2023-03-18T03:06:31;98552.38;;;8.54;100.00
9307;BME280;4691;47.612;7.610;2023-03-18T03:08:57;98549.81;;;8.53;100.00
9307;BME280;4691;47.612;7.610;2023-03-18T03:11:23;98548.69;;;8.44;100.00
9307;BME280;4691;47.612;7.610;2023-03-18T03:13:48;98545.41;;;8.40;100.00
9307;BME280;4691;47.612;7.610;2023-03-18T03:19:32;98550.38;;;8.08;100.00
9307;BME280;4691;47.612;7.610;2023-03-18T03:21:57;98551.88;;;8.12;100.00
9307;BME280;4691;47.612;7.610;2023-03-18T03:24:24;98545.81;;;7.97;100.00
9307;BME280;4691;47.612;7.610;2023-03-18T03:26:49;98558.63;;;7.79;100.00
9307;BME280;4691;47.612;7.610;2023-03-18T03:29:15;98553.16;;;7.94;100.00
9307;BME280;4691;47.612;7.610;2023-03-18T03:31:40;98550.41;;;7.95;100.00
9307;BME280;4691;47.612;7.610;2023-03-18T03:34:06;98550.50;;;7.94;100.00
9307;BME280;4691;47.612;7.610;2023-03-18T03:39:53;98551.47;;;7.93;100.00
9307;BME280;4691;47.612;7.610;2023-03-18T03:45:42;98549.97;;;7.89;100.00
9307;BME280;4691;47.612;7.610;2023-03-18T03:48:08;98547.00;;;7.80;100.00
9307;BME280;4691;47.612;7.610;2023-03-18T03:50:34;98551.22;;;8.08;100.00
9307;BME280;4691;47.612;7.610;2023-03-18T03:53:01;98544.88;;;7.85;100.00
9307;BME280;4691;47.612;7.610;2023-03-18T03:55:26;98547.53;;;7.85;100.00
9307;BME280;4691;47.612;7.610;2023-03-18T03:57:52;98547.69;;;7.71;100.00
9307;BME280;4691;47.612;7.610;2023-03-18T04:00:20;98553.53;;;7.51;100.00
9307;BME280;4691;47.612;7.610;2023-03-18T04:02:47;98553.00;;;7.46;100.00
9307;BME280;4691;47.612;7.610;2023-03-18T04:05:15;98556.59;;;7.45;100.00
9307;BME280;4691;47.612;7.610;2023-03-18T04:07:42;98566.94;;;7.36;100.00
9307;BME280;4691;47.612;7.610;2023-03-18T04:10:09;98557.66;;;7.29;100.00
9307;BME280;4691;47.612;7.610;2023-03-18T04:12:37;98552.25;;;7.44;100.00
9307;BME280;4691;47.612;7.610;2023-03-18T04:15:03;98553.75;;;7.22;100.00
9307;BME280;4691;47.612;7.610;2023-03-18T04:17:29;98549.47;;;7.07;100.00
9307;BME280;4691;47.612;7.610;2023-03-18T04:19:54;98552.63;;;6.86;100.00
9307;BME280;4691;47.612;7.610;2023-03-18T04:22:19;98559.91;;;7.10;100.00
9307;BME280;4691;47.612;7.610;2023-03-18T04:24:45;98565.88;;;7.26;100.00
9307;BME280;4691;47.612;7.610;2023-03-18T04:27:11;98562.06;;;7.30;100.00
9307;BME280;4691;47.612;7.610;2023-03-18T04:29:37;98554.06;;;7.17;100.00
9307;BME280;4691;47.612;7.610;2023-03-18T04:32:02;98551.78;;;6.98;100.00
9307;BME280;4691;47.612;7.610;2023-03-18T04:34:28;98565.75;;;7.15;100.00
9307;BME280;4691;47.612;7.610;2023-03-18T04:36:53;98562.31;;;7.00;100.00
9307;BME280;4691;47.612;7.610;2023-03-18T04:39:20;98547.22;;;7.01;100.00
9307;BME280;4691;47.612;7.610;2023-03-18T04:41:45;98553.50;;;7.00;100.00
9307;BME280;4691;47.612;7.610;2023-03-18T04:44:11;98552.00;;;6.95;100.00
9307;BME280;4691;47.612;7.610;2023-03-18T04:46:36;98562.16;;;6.76;100.00
9307;BME280;4691;47.612;7.610;2023-03-18T04:49:02;98560.06;;;6.81;100.00
9307;BME280;4691;47.612;7.610;2023-03-18T04:51:27;98554.25;;;7.02;100.00
9307;BME280;4691;47.612;7.610;2023-03-18T04:53:52;98564.41;;;6.82;100.00
9307;BME280;4691;47.612;7.610;2023-03-18T04:56:18;98557.03;;;7.13;100.00
9307;BME280;4691;47.612;7.610;2023-03-18T04:58:44;98556.56;;;6.93;100.00
9307;BME280;4691;47.612;7.610;2023-03-18T05:01:10;98559.88;;;6.97;100.00
9307;BME280;4691;47.612;7.610;2023-03-18T05:03:37;98549.75;;;6.89;100.00
9307;BME280;4691;47.612;7.610;2023-03-18T05:06:03;98544.50;;;6.75;100.00
9307;BME280;4691;47.612;7.610;2023-03-18T05:08:28;98539.72;;;6.80;100.00
9307;BME280;4691;47.612;7.610;2023-03-18T05:10:53;98542.66;;;6.63;100.00
9307;BME280;4691;47.612;7.610;2023-03-18T05:13:19;98552.09;;;6.81;100.00
9307;BME280;4691;47.612;7.610;2023-03-18T05:15:44;98549.28;;;6.70;100.00
9307;BME280;4691;47.612;7.610;2023-03-18T05:18:10;98539.16;;;7.02;100.00
9307;BME280;4691;47.612;7.610;2023-03-18T05:20:35;98545.72;;;6.84;100.00
9307;BME280;4691;47.612;7.610;2023-03-18T05:23:00;98547.59;;;6.69;100.00
9307;BME280;4691;47.612;7.610;2023-03-18T05:25:27;98541.38;;;6.56;100.00
9307;BME280;4691;47.612;7.610;2023-03-18T05:27:52;98544.13;;;6.54;100.00
9307;BME280;4691;47.612;7.610;2023-03-18T05:30:18;98550.91;;;6.45;100.00
9307;BME280;4691;47.612;7.610;2023-03-18T05:32:44;98541.06;;;6.33;100.00
9307;BME280;4691;47.612;7.610;2023-03-18T05:35:10;98554.75;;;6.54;100.00
9307;BME280;4691;47.612;7.610;2023-03-18T05:37:35;98559.97;;;6.56;100.00
9307;BME280;4691;47.612;7.610;2023-03-18T05:40:01;98569.22;;;6.63;100.00
9307;BME280;4691;47.612;7.610;2023-03-18T05:42:28;98569.00;;;6.53;100.00
9307;BME280;4691;47.612;7.610;2023-03-18T05:44:53;98572.03;;;6.74;100.00
9307;BME280;4691;47.612;7.610;2023-03-18T05:47:21;98582.97;;;6.42;100.00
9307;BME280;4691;47.612;7.610;2023-03-18T05:49:46;98569.63;;;6.57;100.00
9307;BME280;4691;47.612;7.610;2023-03-18T05:52:12;98572.84;;;6.62;100.00
9307;BME280;4691;47.612;7.610;2023-03-18T05:54:38;98569.28;;;6.88;100.00
9307;BME280;4691;47.612;7.610;2023-03-18T05:57:03;98559.69;;;6.73;100.00
9307;BME280;4691;47.612;7.610;2023-03-18T05:59:29;98567.75;;;6.59;100.00
9307;BME280;4691;47.612;7.610;2023-03-18T06:01:57;98561.03;;;6.93;100.00
9307;BME280;4691;47.612;7.610;2023-03-18T06:04:23;98557.31;;;6.95;100.00
9307;BME280;4691;47.612;7.610;2023-03-18T06:06:49;98570.00;;;7.17;100.00
9307;BME280;4691;47.612;7.610;2023-03-18T06:09:15;98556.59;;;7.45;100.00
9307;BME280;4691;47.612;7.610;2023-03-18T06:11:41;98549.16;;;7.62;100.00
9307;BME280;4691;47.612;7.610;2023-03-18T06:14:08;98562.38;;;7.51;100.00
9307;BME280;4691;47.612;7.610;2023-03-18T06:16:34;98560.16;;;7.71;100.00
9307;BME280;4691;47.612;7.610;2023-03-18T06:19:02;98558.88;;;7.51;100.00
9307;BME280;4691;47.612;7.610;2023-03-18T06:21:29;98565.03;;;7.51;100.00
9307;BME280;4691;47.612;7.610;2023-03-18T06:23:57;98578.88;;;7.69;100.00
9307;BME280;4691;47.612;7.610;2023-03-18T06:26:23;98580.38;;;7.48;100.00
9307;BME280;4691;47.612;7.610;2023-03-18T06:28:48;98571.78;;;7.94;100.00
9307;BME280;4691;47.612;7.610;2023-03-18T06:31:14;98571.91;;;8.05;100.00
9307;BME280;4691;47.612;7.610;2023-03-18T06:33:39;98569.72;;;7.73;100.00
9307;BME280;4691;47.612;7.610;2023-03-18T06:36:05;98573.28;;;8.35;100.00
9307;BME280;4691;47.612;7.610;2023-03-18T06:38:30;98571.00;;;8.30;100.00
9307;BME280;4691;47.612;7.610;2023-03-18T06:40:56;98567.72;;;8.63;100.00
9307;BME280;4691;47.612;7.610;2023-03-18T06:43:22;98552.38;;;8.54;100.00
9307;BME280;4691;47.612;7.610;2023-03-18T06:45:47;98561.41;;;8.40;100.00
9307;BME280;4691;47.612;7.610;2023-03-18T06:48:15;98565.19;;;8.97;100.00
9307;BME280;4691;47.612;7.610;2023-03-18T06:50:42;98550.47;;;9.27;100.00
9307;BME280;4691;47.612;7.610;2023-03-18T06:53:08;98553.34;;;9.12;100.00
9307;BME280;4691;47.612;7.610;2023-03-18T06:55:34;98564.16;;;8.87;100.00
9307;BME280;4691;47.612;7.610;2023-03-18T06:58:01;98567.69;;;9.34;100.00
9307;BME280;4691;47.612;7.610;2023-03-18T07:00:27;98555.88;;;9.72;100.00
9307;BME280;4691;47.612;7.610;2023-03-18T07:02:55;98563.16;;;9.70;100.00
9307;BME280;4691;47.612;7.610;2023-03-18T07:05:20;98570.63;;;9.42;100.00
9307;BME280;4691;47.612;7.610;2023-03-18T07:07:47;98572.84;;;9.59;100.00
9307;BME280;4691;47.612;7.610;2023-03-18T07:10:28;98582.31;;;9.75;100.00
9307;BME280;4691;47.612;7.610;2023-03-18T07:12:56;98580.63;;;9.74;100.00
9307;BME280;4691;47.612;7.610;2023-03-18T07:15:25;98582.72;;;9.81;100.00
9307;BME280;4691;47.612;7.610;2023-03-18T07:17:51;98575.53;;;10.16;100.00
9307;BME280;4691;47.612;7.610;2023-03-18T07:20:18;98581.63;;;10.29;100.00
9307;BME280;4691;47.612;7.610;2023-03-18T07:22:46;98574.78;;;10.48;100.00
9307;BME280;4691;47.612;7.610;2023-03-18T07:25:12;98574.97;;;10.67;100.00
9307;BME280;4691;47.612;7.610;2023-03-18T07:27:38;98596.53;;;10.54;100.00
9307;BME280;4691;47.612;7.610;2023-03-18T07:30:04;98584.69;;;10.68;100.00
9307;BME280;4691;47.612;7.610;2023-03-18T07:32:30;98589.78;;;10.71;100.00
9307;BME280;4691;47.612;7.610;2023-03-18T07:34:56;98601.19;;;10.84;100.00
9307;BME280;4691;47.612;7.610;2023-03-18T07:37:26;98606.28;;;10.87;100.00
9307;BME280;4691;47.612;7.610;2023-03-18T07:39:51;98604.88;;;10.72;100.00
9307;BME280;4691;47.612;7.610;2023-03-18T07:42:17;98603.31;;;10.58;100.00
9307;BME280;4691;47.612;7.610;2023-03-18T07:44:43;98602.06;;;11.06;100.00
9307;BME280;4691;47.612;7.610;2023-03-18T07:47:08;98605.78;;;11.15;100.00
9307;BME280;4691;47.612;7.610;2023-03-18T07:49:34;98592.97;;;11.29;100.00
9307;BME280;4691;47.612;7.610;2023-03-18T07:51:59;98604.94;;;11.14;100.00
9307;BME280;4691;47.612;7.610;2023-03-18T07:54:26;98609.81;;;11.62;100.00
9307;BME280;4691;47.612;7.610;2023-03-18T07:56:52;98600.66;;;11.86;100.00
9307;BME280;4691;47.612;7.610;2023-03-18T07:59:17;98606.81;;;11.34;100.00
9307;BME280;4691;47.612;7.610;2023-03-18T08:01:46;98602.78;;;11.61;100.00
9307;BME280;4691;47.612;7.610;2023-03-18T08:04:17;98599.69;;;11.66;100.00
9307;BME280;4691;47.612;7.610;2023-03-18T08:06:43;98597.59;;;11.69;100.00
9307;BME280;4691;47.612;7.610;2023-03-18T08:09:09;98599.16;;;11.72;100.00
9307;BME280;4691;47.612;7.610;2023-03-18T08:11:34;98610.28;;;11.67;100.00
9307;BME280;4691;47.612;7.610;2023-03-18T08:14:01;98598.81;;;12.48;100.00
9307;BME280;4691;47.612;7.610;2023-03-18T08:16:26;98592.31;;;12.00;100.00
9307;BME280;4691;47.612;7.610;2023-03-18T08:18:52;98597.19;;;12.26;100.00
9307;BME280;4691;47.612;7.610;2023-03-18T08:21:17;98596.38;;;12.35;100.00
9307;BME280;4691;47.612;7.610;2023-03-18T08:23:43;98584.91;;;12.83;100.00
9307;BME280;4691;47.612;7.610;2023-03-18T08:26:09;98580.97;;;13.26;100.00
9307;BME280;4691;47.612;7.610;2023-03-18T08:28:35;98571.22;;;13.44;100.00
9307;BME280;4691;47.612;7.610;2023-03-18T08:31:00;98583.03;;;13.71;100.00
9307;BME280;4691;47.612;7.610;2023-03-18T08:33:27;98570.50;;;13.42;100.00
9307;BME280;4691;47.612;7.610;2023-03-18T08:35:54;98577.56;;;13.24;100.00
9307;BME280;4691;47.612;7.610;2023-03-18T08:38:20;98564.84;;;13.45;100.00
9307;BME280;4691;47.612;7.610;2023-03-18T08:40:46;98559.75;;;13.99;100.00
9307;BME280;4691;47.612;7.610;2023-03-18T08:43:12;98559.44;;;13.65;100.00
9307;BME280;4691;47.612;7.610;2023-03-18T08:45:37;98552.63;;;13.70;100.00
9307;BME280;4691;47.612;7.610;2023-03-18T08:48:03;98546.13;;;14.10;100.00
9307;BME280;4691;47.612;7.610;2023-03-18T08:50:29;98557.06;;;13.99;100.00
9307;BME280;4691;47.612;7.610;2023-03-18T08:52:55;98559.31;;;14.04;100.00
9307;BME280;4691;47.612;7.610;2023-03-18T08:55:22;98565.13;;;13.62;100.00
9307;BME280;4691;47.612;7.610;2023-03-18T08:57:48;98552.94;;;14.05;100.00
9307;BME280;4691;47.612;7.610;2023-03-18T09:00:14;98554.84;;;14.22;100.00
9307;BME280;4691;47.612;7.610;2023-03-18T09:02:40;98552.81;;;14.34;100.00
9307;BME280;4691;47.612;7.610;2023-03-18T09:05:06;98541.72;;;14.09;100.00
9307;BME280;4691;47.612;7.610;2023-03-18T09:07:31;98535.06;;;14.13;100.00
9307;BME280;4691;47.612;7.610;2023-03-18T09:09:57;98526.59;;;14.81;100.00
9307;BME280;4691;47.612;7.610;2023-03-18T09:12:22;98524.84;;;14.72;100.00
9307;BME280;4691;47.612;7.610;2023-03-18T09:14:48;98516.06;;;14.70;100.00
9307;BME280;4691;47.612;7.610;2023-03-18T09:17:14;98514.97;;;14.99;100.00
9307;BME280;4691;47.612;7.610;2023-03-18T09:19:40;98498.75;;;14.73;100.00
9307;BME280;4691;47.612;7.610;2023-03-18T09:22:05;98513.44;;;15.40;100.00
9307;BME280;4691;47.612;7.610;2023-03-18T09:24:31;98487.28;;;15.85;100.00
9307;BME280;4691;47.612;7.610;2023-03-18T09:26:56;98475.50;;;15.86;100.00
9307;BME280;4691;47.612;7.610;2023-03-18T09:29:24;98475.06;;;15.64;100.00
9307;BME280;4691;47.612;7.610;2023-03-18T09:31:52;98480.78;;;15.17;100.00
9307;BME280;4691;47.612;7.610;2023-03-18T09:34:17;98462.81;;;15.44;100.00
9307;BME280;4691;47.612;7.610;2023-03-18T09:36:43;98461.25;;;16.02;100.00
9307;BME280;4691;47.612;7.610;2023-03-18T09:39:15;98464.97;;;16.60;100.00
9307;BME280;4691;47.612;7.610;2023-03-18T09:44:37;98449.94;;;16.57;100.00
9307;BME280;4691;47.612;7.610;2023-03-18T09:52:33;98411.84;;;16.93;100.00
9307;BME280;4691;47.612;7.610;2023-03-18T09:55:04;98393.81;;;17.57;100.00
9307;BME280;4691;47.612;7.610;2023-03-18T09:57:42;98267.94;;;23.96;100.00
9307;BME280;4691;47.612;7.610;2023-03-18T10:00:35;98192.66;;;23.30;100.00
9307;BME280;4691;47.612;7.610;2023-03-18T10:05:50;98235.00;;;20.48;100.00
9307;BME280;4691;47.612;7.610;2023-03-18T10:08:24;98138.38;;;23.60;100.00
9307;BME280;4691;47.612;7.610;2023-03-18T10:11:00;98198.00;;;20.19;100.00
9307;BME280;4691;47.612;7.610;2023-03-18T10:13:32;98164.16;;;22.54;100.00
9307;BME280;4691;47.612;7.610;2023-03-18T10:16:02;98105.78;;;25.93;100.00
9307;BME280;4691;47.612;7.610;2023-03-18T10:18:36;98171.69;;;21.92;100.00
9307;BME280;4691;47.612;7.610;2023-03-18T10:21:38;98150.13;;;21.84;100.00
9307;BME280;4691;47.612;7.610;2023-03-18T10:24:16;98120.22;;;24.04;100.00
9307;BME280;4691;47.612;7.610;2023-03-18T10:26:51;98084.50;;;24.86;100.00
9307;BME280;4691;47.612;7.610;2023-03-18T10:29:39;98097.16;;;24.00;100.00
9307;BME280;4691;47.612;7.610;2023-03-18T10:35:33;98076.09;;;25.36;100.00
9307;BME280;4691;47.612;7.610;2023-03-18T10:38:09;98068.63;;;26.56;100.00
9307;BME280;4691;47.612;7.610;2023-03-18T10:40:40;98015.72;;;25.73;100.00
9307;BME280;4691;47.612;7.610;2023-03-18T10:43:18;98058.41;;;24.71;100.00
9307;BME280;4691;47.612;7.610;2023-03-18T10:45:47;98040.91;;;24.91;100.00
9307;BME280;4691;47.612;7.610;2023-03-18T10:48:35;98019.63;;;24.93;100.00
9307;BME280;4691;47.612;7.610;2023-03-18T10:51:15;98044.81;;;25.13;100.00
9307;BME280;4691;47.612;7.610;2023-03-18T10:53:50;97965.88;;;28.39;100.00
9307;BME280;4691;47.612;7.610;2023-03-18T10:56:19;97994.72;;;25.43;100.00
9307;BME280;4691;47.612;7.610;2023-03-18T10:58:48;98068.50;;;24.27;100.00
9307;BME280;4691;47.612;7.610;2023-03-18T11:01:15;97978.38;;;27.23;100.00
9307;BME280;4691;47.612;7.610;2023-03-18T11:04:16;97987.25;;;25.62;100.00
9307;BME280;4691;47.612;7.610;2023-03-18T11:09:21;97904.19;;;28.79;100.00
9307;BME280;4691;47.612;7.610;2023-03-18T11:11:55;98000.81;;;27.83;100.00
9307;BME280;4691;47.612;7.610;2023-03-18T11:14:26;97927.22;;;27.68;100.00
9307;BME280;4691;47.612;7.610;2023-03-18T11:17:04;97934.09;;;28.26;100.00
9307;BME280;4691;47.612;7.610;2023-03-18T11:19:44;97964.66;;;27.57;100.00
9307;BME280;4691;47.612;7.610;2023-03-18T11:22:16;97963.47;;;28.92;100.00
9307;BME280;4691;47.612;7.610;2023-03-18T11:24:42;97966.22;;;27.19;100.00
9307;BME280;4691;47.612;7.610;2023-03-18T11:29:42;97938.16;;;29.17;100.00
9307;BME280;4691;47.612;7.610;2023-03-18T11:32:34;97917.72;;;28.80;100.00
9307;BME280;4691;47.612;7.610;2023-03-18T11:35:03;97874.00;;;29.86;100.00
9307;BME280;4691;47.612;7.610;2023-03-18T11:37:38;97885.84;;;27.74;100.00
9307;BME280;4691;47.612;7.610;2023-03-18T11:42:40;97897.91;;;27.73;100.00
9307;BME280;4691;47.612;7.610;2023-03-18T11:45:35;97894.44;;;28.93;100.00
9307;BME280;4691;47.612;7.610;2023-03-18T11:48:13;97954.41;;;23.93;100.00
9307;BME280;4691;47.612;7.610;2023-03-18T11:50:48;97950.13;;;25.12;100.00
9307;BME280;4691;47.612;7.610;2023-03-18T11:53:26;97885.97;;;29.27;100.00
9307;BME280;4691;47.612;7.610;2023-03-18T11:56:25;97979.78;;;26.04;100.00
9307;BME280;4691;47.612;7.610;2023-03-18T12:01:58;97948.09;;;27.35;100.00
9307;BME280;4691;47.612;7.610;2023-03-18T12:05:08;97938.56;;;25.99;100.00
9307;BME280;4691;47.612;7.610;2023-03-18T12:07:52;97926.38;;;26.71;100.00
9307;BME280;4691;47.612;7.610;2023-03-18T12:10:40;97933.88;;;27.21;100.00
9307;BME280;4691;47.612;7.610;2023-03-18T12:21:56;97721.47;;;33.80;100.00
9307;BME280;4691;47.612;7.610;2023-03-18T12:27:44;97902.16;;;29.23;100.00
9307;BME280;4691;47.612;7.610;2023-03-18T12:33:01;97897.41;;;28.59;100.00
9307;BME280;4691;47.612;7.610;2023-03-18T12:36:00;97924.56;;;27.22;100.00
9307;BME280;4691;47.612;7.610;2023-03-18T13:01:01;98005.50;;;22.58;100.00
9307;BME280;4691;47.612;7.610;2023-03-18T13:17:19;97994.75;;;22.05;100.00
9307;BME280;4691;47.612;7.610;2023-03-18T13:19:50;98005.91;;;23.32;100.00
9307;BME280;4691;47.612;7.610;2023-03-18T13:22:51;97959.06;;;24.77;100.00
9307;BME280;4691;47.612;7.610;2023-03-18T13:31:53;97943.31;;;23.44;100.00
9307;BME280;4691;47.612;7.610;2023-03-18T13:42:58;97897.59;;;26.16;100.00
9307;BME280;4691;47.612;7.610;2023-03-18T13:48:05;97987.50;;;21.66;100.00
9307;BME280;4691;47.612;7.610;2023-03-18T13:50:50;97921.28;;;24.07;100.00
9307;BME280;4691;47.612;7.610;2023-03-18T13:58:51;97897.69;;;23.76;100.00
9307;BME280;4691;47.612;7.610;2023-03-18T14:01:30;97867.75;;;25.56;100.00
9307;BME280;4691;47.612;7.610;2023-03-18T14:07:31;97860.41;;;25.56;100.00
9307;BME280;4691;47.612;7.610;2023-03-18T14:10:17;97870.88;;;25.59;100.00
9307;BME280;4691;47.612;7.610;2023-03-18T14:12:45;97852.56;;;26.41;100.00
9307;BME280;4691;47.612;7.610;2023-03-18T14:17:56;97848.63;;;27.45;100.00
9307;BME280;4691;47.612;7.610;2023-03-18T14:20:35;97754.97;;;29.36;100.00
9307;BME280;4691;47.612;7.610;2023-03-18T14:23:31;97744.50;;;29.33;100.00
9307;BME280;4691;47.612;7.610;2023-03-18T14:26:07;97792.44;;;28.13;100.00
9307;BME280;4691;47.612;7.610;2023-03-18T14:34:24;97758.00;;;28.06;100.00
9307;BME280;4691;47.612;7.610;2023-03-18T14:40:20;97762.75;;;28.15;100.00
9307;BME280;4691;47.612;7.610;2023-03-18T14:42:48;97687.53;;;30.99;100.00
9307;BME280;4691;47.612;7.610;2023-03-18T14:45:22;97807.13;;;29.58;100.00
9307;BME280;4691;47.612;7.610;2023-03-18T14:47:56;97781.69;;;26.44;100.00
9307;BME280;4691;47.612;7.610;2023-03-18T14:53:23;97911.31;;;23.08;100.00
9307;BME280;4691;47.612;7.610;2023-03-18T14:55:57;97855.75;;;24.38;100.00
9307;BME280;4691;47.612;7.610;2023-03-18T14:58:37;97899.50;;;23.14;100.00
9307;BME280;4691;47.612;7.610;2023-03-18T15:01:06;97894.47;;;22.54;100.00
9307;BME280;4691;47.612;7.610;2023-03-18T15:03:39;97898.53;;;22.38;100.00
9307;BME280;4691;47.612;7.610;2023-03-18T15:06:18;97917.56;;;21.80;100.00
9307;BME280;4691;47.612;7.610;2023-03-18T15:09:03;97924.75;;;21.27;100.00
9307;BME280;4691;47.612;7.610;2023-03-18T15:11:45;97973.41;;;20.82;100.00
9307;BME280;4691;47.612;7.610;2023-03-18T15:14:17;97948.09;;;20.69;100.00
9307;BME280;4691;47.612;7.610;2023-03-18T15:16:48;97962.94;;;20.79;100.00
9307;BME280;4691;47.612;7.610;2023-03-18T15:19:17;97984.66;;;20.25;100.00
9307;BME280;4691;47.612;7.610;2023-03-18T15:21:43;97974.09;;;20.43;100.00
9307;BME280;4691;47.612;7.610;2023-03-18T15:24:21;97977.88;;;20.49;100.00
9307;BME280;4691;47.612;7.610;2023-03-18T15:27:09;97959.56;;;20.16;100.00
9307;BME280;4691;47.612;7.610;2023-03-18T15:29:53;97967.00;;;20.49;100.00
9307;BME280;4691;47.612;7.610;2023-03-18T15:32:44;97958.91;;;20.14;100.00
9307;BME280;4691;47.612;7.610;2023-03-18T15:35:20;97962.69;;;20.13;100.00
9307;BME280;4691;47.612;7.610;2023-03-18T15:40:45;97960.91;;;19.98;100.00
9307;BME280;4691;47.612;7.610;2023-03-18T15:45:58;97973.88;;;19.96;100.00